createdAt,value
2023-06-27T00:01:45.290Z,56.71
2023-06-27T00:04:13.027Z,56.73
2023-06-27T00:06:40.195Z,56.73
2023-06-27T00:09:09.940Z,56.71
2023-06-27T00:11:42.870Z,56.73
2023-06-27T00:14:12.960Z,56.70
2023-06-27T00:16:39.857Z,56.70
2023-06-27T00:19:06.867Z,56.68
2023-06-27T00:21:37.045Z,56.71
2023-06-27T00:24:07.467Z,56.71
2023-06-27T00:26:35.281Z,56.70
2023-06-27T00:29:04.267Z,56.69
2023-06-27T00:31:31.487Z,56.70
2023-06-27T00:33:58.465Z,56.69
2023-06-27T00:36:25.422Z,56.69
2023-06-27T00:38:55.560Z,56.70
2023-06-27T00:41:25.268Z,56.73
2023-06-27T00:44:00.924Z,56.74
2023-06-27T00:46:39.754Z,56.71
2023-06-27T00:49:13.500Z,56.71
2023-06-27T00:51:45.326Z,56.72
2023-06-27T00:54:12.399Z,56.72
2023-06-27T00:56:42.315Z,56.73
2023-06-27T00:59:17.609Z,56.72
2023-06-27T01:01:48.244Z,56.72
2023-06-27T01:04:21.120Z,56.73
2023-06-27T01:07:10.846Z,56.73
2023-06-27T01:09:41.562Z,56.73
2023-06-27T01:12:18.622Z,56.71
2023-06-27T01:14:49.078Z,56.75
2023-06-27T01:17:25.754Z,56.70
2023-06-27T01:19:58.347Z,56.71
2023-06-27T01:22:35.064Z,56.69
2023-06-27T01:25:02.454Z,56.70
2023-06-27T01:27:29.504Z,56.69
2023-06-27T01:29:57.515Z,56.71
2023-06-27T01:32:27.865Z,56.73
2023-06-27T01:34:59.393Z,56.72
2023-06-27T01:37:34.194Z,56.77
2023-06-27T01:40:03.661Z,56.79
2023-06-27T01:42:36.934Z,56.77
2023-06-27T01:45:08.539Z,56.77
2023-06-27T01:47:38.090Z,56.77
2023-06-27T01:50:11.533Z,56.73
2023-06-27T01:52:38.782Z,56.75
2023-06-27T01:55:09.675Z,56.73
2023-06-27T01:57:39.238Z,56.74
2023-06-27T02:00:12.080Z,56.74
2023-06-27T02:02:46.206Z,56.77
2023-06-27T02:05:19.513Z,56.74
2023-06-27T02:07:50.053Z,56.73
2023-06-27T02:10:17.027Z,56.71
2023-06-27T02:12:47.792Z,56.72
2023-06-27T02:15:18.286Z,56.74
2023-06-27T02:17:47.906Z,56.72
2023-06-27T02:20:21.540Z,56.75
2023-06-27T02:22:48.796Z,56.75
2023-06-27T02:25:17.953Z,56.74
2023-06-27T02:27:50.989Z,56.79
2023-06-27T02:30:19.392Z,56.77
2023-06-27T02:32:48.021Z,56.81
2023-06-27T02:35:15.208Z,56.78
2023-06-27T02:37:45.591Z,56.77
2023-06-27T02:40:14.952Z,56.77
2023-06-27T02:42:46.753Z,56.77
2023-06-27T02:45:17.821Z,56.78
2023-06-27T02:47:46.826Z,56.76
2023-06-27T02:50:14.087Z,56.77
2023-06-27T02:52:41.079Z,56.80
2023-06-27T02:55:11.973Z,56.72
2023-06-27T02:57:45.391Z,56.69
2023-06-27T03:00:21.198Z,56.71
2023-06-27T03:02:48.411Z,56.69
2023-06-27T03:05:18.337Z,56.69
2023-06-27T03:07:48.464Z,56.64
2023-06-27T03:10:20.831Z,56.64
2023-06-27T03:12:53.118Z,56.73
2023-06-27T03:15:23.833Z,56.78
2023-06-27T03:17:58.369Z,56.79
2023-06-27T03:20:29.294Z,56.79
2023-06-27T03:22:58.060Z,56.80
2023-06-27T03:25:25.703Z,56.80
2023-06-27T03:27:53.617Z,56.81
2023-06-27T03:30:21.353Z,56.81
2023-06-27T03:32:50.120Z,56.84
2023-06-27T03:35:17.507Z,56.82
2023-06-27T03:37:47.699Z,56.84
2023-06-27T03:40:16.488Z,56.84
2023-06-27T03:42:46.377Z,56.83
2023-06-27T03:45:15.496Z,56.83
2023-06-27T03:47:46.318Z,56.85
2023-06-27T03:50:13.498Z,56.83
2023-06-27T03:52:40.580Z,56.81
2023-06-27T03:55:10.020Z,56.81
2023-06-27T03:57:39.872Z,56.83
2023-06-27T04:00:13.476Z,56.86
2023-06-27T04:02:50.275Z,56.87
2023-06-27T04:05:19.927Z,56.86
2023-06-27T04:07:54.390Z,56.90
2023-06-27T04:10:27.788Z,56.91
2023-06-27T04:13:01.138Z,56.89
2023-06-27T04:15:29.883Z,56.87
2023-06-27T04:18:05.646Z,56.90
2023-06-27T04:20:35.694Z,56.86
2023-06-27T04:23:06.295Z,56.89
2023-06-27T04:25:34.084Z,56.87
2023-06-27T04:28:01.230Z,56.91
2023-06-27T04:30:34.445Z,56.90
2023-06-27T04:33:01.509Z,56.88
2023-06-27T04:35:32.339Z,56.88
2023-06-27T04:37:59.435Z,56.83
2023-06-27T04:40:26.479Z,56.82
2023-06-27T04:42:53.714Z,56.81
2023-06-27T04:45:20.624Z,56.86
2023-06-27T04:47:55.886Z,56.83
2023-06-27T04:50:26.318Z,56.84
2023-06-27T04:52:53.269Z,56.83
2023-06-27T04:55:23.322Z,56.82
2023-06-27T04:57:50.295Z,56.84
2023-06-27T05:00:17.793Z,56.84
2023-06-27T05:02:49.915Z,56.87
2023-06-27T05:05:20.845Z,56.85
2023-06-27T05:07:49.644Z,56.83
2023-06-27T05:10:20.736Z,56.85
2023-06-27T05:12:47.993Z,56.90
2023-06-27T05:15:17.206Z,56.84
2023-06-27T05:17:50.108Z,56.83
2023-06-27T05:20:20.613Z,56.86
2023-06-27T05:22:47.801Z,56.92
2023-06-27T05:25:18.478Z,56.97
2023-06-27T05:27:47.254Z,56.96
2023-06-27T05:30:14.736Z,57.11
2023-06-27T05:32:44.032Z,57.40
2023-06-27T05:35:14.048Z,57.77
2023-06-27T05:37:43.723Z,58.06
2023-06-27T05:40:14.606Z,57.96
2023-06-27T05:42:42.420Z,58.09
2023-06-27T05:45:17.800Z,58.27
2023-06-27T05:47:45.922Z,58.35
2023-06-27T05:50:21.676Z,58.51
2023-06-27T05:53:00.394Z,58.41
2023-06-27T05:55:30.973Z,58.43
2023-06-27T05:58:00.648Z,58.46
2023-06-27T06:00:38.689Z,58.63
2023-06-27T06:03:11.580Z,58.79
2023-06-27T06:05:46.251Z,58.85
2023-06-27T06:08:16.875Z,59.12
2023-06-27T06:10:44.133Z,59.36
2023-06-27T06:13:11.100Z,59.55
2023-06-27T06:15:40.829Z,59.71
2023-06-27T06:18:09.773Z,59.64
2023-06-27T06:20:42.586Z,59.99
2023-06-27T06:23:12.916Z,60.01
2023-06-27T06:25:40.218Z,60.04
2023-06-27T06:28:10.503Z,60.12
2023-06-27T06:30:39.348Z,60.08
2023-06-27T06:33:08.520Z,60.02
2023-06-27T06:35:35.608Z,59.92
2023-06-27T06:38:10.051Z,59.91
2023-06-27T06:40:48.018Z,59.93
2023-06-27T06:43:18.536Z,59.90
2023-06-27T06:45:50.845Z,59.88
2023-06-27T06:48:18.030Z,60.08
2023-06-27T06:50:51.774Z,59.84
2023-06-27T06:53:19.504Z,59.65
2023-06-27T06:55:55.114Z,59.65
2023-06-27T06:58:25.159Z,59.70
2023-06-27T07:00:55.947Z,59.99
2023-06-27T07:03:23.488Z,60.45
2023-06-27T07:05:53.162Z,61.09
2023-06-27T07:08:28.861Z,61.76
2023-06-27T07:10:55.602Z,60.84
2023-06-27T07:13:28.671Z,59.36
2023-06-27T07:15:58.523Z,59.64
2023-06-27T07:18:28.262Z,60.11
2023-06-27T07:20:55.126Z,62.03
2023-06-27T07:23:25.598Z,63.44
2023-06-27T07:25:58.293Z,62.90
2023-06-27T07:28:25.028Z,62.87
2023-06-27T07:30:55.496Z,62.00
2023-06-27T07:33:22.183Z,62.59
2023-06-27T07:35:49.171Z,63.23
2023-06-27T07:38:18.968Z,63.16
2023-06-27T07:40:45.562Z,62.10
2023-06-27T07:43:13.381Z,61.37
2023-06-27T07:45:42.760Z,61.14
2023-06-27T07:48:15.570Z,60.84
2023-06-27T07:50:44.486Z,60.83
2023-06-27T07:53:16.075Z,60.44
2023-06-27T07:55:44.481Z,60.45
2023-06-27T07:58:14.259Z,60.35
2023-06-27T08:00:43.939Z,60.11
2023-06-27T08:03:17.244Z,60.06
2023-06-27T08:05:44.809Z,60.08
2023-06-27T08:08:14.880Z,60.35
2023-06-27T08:10:45.066Z,60.40
2023-06-27T08:13:14.696Z,60.02
2023-06-27T08:15:45.149Z,59.80
2023-06-27T08:18:14.476Z,59.84
2023-06-27T08:20:44.343Z,59.74
2023-06-27T08:23:11.272Z,59.69
2023-06-27T08:25:38.425Z,59.73
2023-06-27T08:28:08.616Z,59.87
2023-06-27T08:30:38.850Z,59.73
2023-06-27T08:33:09.163Z,59.50
2023-06-27T08:35:36.041Z,59.40
2023-06-27T08:38:03.606Z,59.45
2023-06-27T08:40:33.510Z,59.43
2023-06-27T08:43:05.001Z,59.14
2023-06-27T08:45:38.157Z,59.14
2023-06-27T08:48:17.671Z,58.74
2023-06-27T08:50:52.273Z,58.86
2023-06-27T08:53:25.497Z,58.77
2023-06-27T08:56:00.883Z,58.83
2023-06-27T08:58:36.425Z,58.88
2023-06-27T09:01:07.694Z,58.85
2023-06-27T09:03:41.048Z,58.74
2023-06-27T09:06:20.749Z,58.63
2023-06-27T09:08:50.121Z,58.44
2023-06-27T09:11:21.325Z,58.72
2023-06-27T09:13:48.366Z,58.48
2023-06-27T09:16:16.699Z,58.87
2023-06-27T09:18:45.137Z,59.06
2023-06-27T09:21:12.102Z,59.34
2023-06-27T09:23:40.462Z,59.52
2023-06-27T09:26:08.137Z,59.67
2023-06-27T09:28:44.594Z,59.84
2023-06-27T09:31:15.218Z,59.83
2023-06-27T09:33:46.284Z,59.95
2023-06-27T09:39:10.817Z,59.69
2023-06-27T09:41:45.130Z,58.62
2023-06-27T09:44:22.166Z,59.02
2023-06-27T09:46:50.457Z,58.73
2023-06-27T09:49:23.027Z,59.11
2023-06-27T09:51:53.782Z,58.83
2023-06-27T09:54:24.575Z,58.89
2023-06-27T09:56:54.186Z,58.77
2023-06-27T09:59:26.697Z,58.94
2023-06-27T10:01:56.766Z,59.02
2023-06-27T10:07:03.208Z,59.32
2023-06-27T10:09:35.547Z,59.16
2023-06-27T10:12:09.182Z,59.24
2023-06-27T10:14:36.211Z,59.29
2023-06-27T10:17:08.341Z,59.35
2023-06-27T10:19:39.724Z,59.46
2023-06-27T10:22:18.337Z,59.66
2023-06-27T10:24:53.607Z,59.49
2023-06-27T10:27:20.908Z,59.49
2023-06-27T10:29:51.425Z,59.48
2023-06-27T10:32:20.135Z,59.43
2023-06-27T10:34:49.829Z,59.18
2023-06-27T10:37:25.426Z,59.15
2023-06-27T10:40:02.164Z,59.05
2023-06-27T10:42:35.709Z,59.37
2023-06-27T10:45:18.639Z,59.28
2023-06-27T10:47:50.371Z,59.39
2023-06-27T10:50:26.156Z,59.53
2023-06-27T10:53:09.429Z,59.36
2023-06-27T10:55:36.277Z,59.04
2023-06-27T10:58:04.444Z,59.17
2023-06-27T11:00:37.307Z,59.10
2023-06-27T11:03:05.380Z,59.02
2023-06-27T11:05:46.021Z,59.37
2023-06-27T11:08:16.247Z,59.47
2023-06-27T11:11:10.217Z,59.50
2023-06-27T11:13:40.219Z,59.52
2023-06-27T11:16:07.276Z,59.48
2023-06-27T11:18:38.101Z,59.40
2023-06-27T11:21:07.984Z,59.17
2023-06-27T11:23:40.651Z,58.96
2023-06-27T11:26:07.463Z,59.09
2023-06-27T11:28:35.076Z,59.13
2023-06-27T11:31:01.850Z,59.04
2023-06-27T11:33:31.950Z,59.09
2023-06-27T11:35:59.748Z,58.77
2023-06-27T11:38:29.133Z,58.77
2023-06-27T11:40:59.099Z,58.46
2023-06-27T11:43:33.232Z,58.67
2023-06-27T11:45:59.889Z,58.76
2023-06-27T11:48:27.808Z,58.16
2023-06-27T11:51:07.764Z,58.28
2023-06-27T11:53:41.889Z,58.17
2023-06-27T11:56:21.535Z,58.29
2023-06-27T11:58:55.425Z,58.23
2023-06-27T12:01:27.315Z,58.06
2023-06-27T12:03:57.128Z,57.44
2023-06-27T12:06:28.679Z,57.64
2023-06-27T12:09:01.836Z,57.60
2023-06-27T12:11:39.534Z,57.06
2023-06-27T12:14:06.282Z,56.57
2023-06-27T12:16:35.868Z,56.70
2023-06-27T12:19:09.634Z,56.51
2023-06-27T12:21:36.951Z,56.33
2023-06-27T12:24:04.078Z,56.43
2023-06-27T12:26:31.318Z,56.09
2023-06-27T12:29:07.401Z,56.10
2023-06-27T12:31:40.675Z,55.53
2023-06-27T12:34:10.150Z,55.94
2023-06-27T12:36:39.532Z,55.68
2023-06-27T12:39:11.896Z,55.15
2023-06-27T12:41:38.679Z,54.64
2023-06-27T12:44:06.368Z,54.04
2023-06-27T12:46:33.442Z,54.36
2023-06-27T12:49:00.138Z,54.61
2023-06-27T12:51:27.767Z,54.09
2023-06-27T12:54:11.583Z,54.02
2023-06-27T12:57:04.295Z,54.20
2023-06-27T12:59:32.279Z,53.88
2023-06-27T13:02:00.692Z,53.93
2023-06-27T13:04:33.606Z,53.88
2023-06-27T13:07:06.219Z,53.65
2023-06-27T13:09:39.530Z,53.67
2023-06-27T13:12:13.231Z,53.10
2023-06-27T13:14:45.861Z,52.95
2023-06-27T13:17:18.369Z,52.34
2023-06-27T13:19:48.058Z,52.18
2023-06-27T13:22:21.616Z,52.26
2023-06-27T13:24:54.069Z,52.05
2023-06-27T13:27:44.922Z,51.91
2023-06-27T13:30:14.987Z,51.87
2023-06-27T13:32:45.266Z,51.74
2023-06-27T13:35:15.660Z,52.02
2023-06-27T13:37:59.610Z,52.30
2023-06-27T13:40:33.521Z,51.74
2023-06-27T13:43:08.189Z,51.84
2023-06-27T13:45:34.928Z,51.77
2023-06-27T13:48:03.956Z,52.09
2023-06-27T13:50:33.998Z,52.13
2023-06-27T13:53:00.807Z,51.99
2023-06-27T13:55:27.952Z,52.35
2023-06-27T13:57:54.831Z,52.41
2023-06-27T14:00:24.619Z,52.38
2023-06-27T14:02:54.061Z,52.55
2023-06-27T14:05:22.631Z,52.42
2023-06-27T14:07:49.405Z,52.57
2023-06-27T14:10:16.355Z,52.76
2023-06-27T14:12:51.087Z,52.86
2023-06-27T14:15:24.785Z,52.99
2023-06-27T14:17:55.974Z,52.83
2023-06-27T14:20:32.029Z,53.06
2023-06-27T14:23:04.773Z,53.00
2023-06-27T14:25:33.405Z,53.19
2023-06-27T14:28:05.522Z,53.26
2023-06-27T14:30:32.250Z,53.36
2023-06-27T14:33:05.802Z,53.38
2023-06-27T14:35:39.647Z,53.45
2023-06-27T14:38:09.686Z,53.63
2023-06-27T14:40:36.483Z,53.66
2023-06-27T14:43:03.253Z,53.45
2023-06-27T14:45:32.850Z,53.61
2023-06-27T14:48:02.161Z,53.71
2023-06-27T14:50:32.306Z,53.81
2023-06-27T14:53:00.724Z,53.90
2023-06-27T14:55:30.624Z,53.90
2023-06-27T14:57:57.313Z,54.00
2023-06-27T15:00:24.153Z,54.22
2023-06-27T15:02:51.026Z,54.26
2023-06-27T15:05:20.824Z,54.31
2023-06-27T15:07:53.299Z,54.34
2023-06-27T15:10:28.232Z,54.41
2023-06-27T15:12:54.961Z,54.58
2023-06-27T15:15:34.788Z,54.76
2023-06-27T15:18:04.847Z,55.25
2023-06-27T15:20:34.386Z,55.33
2023-06-27T15:23:03.566Z,55.24
2023-06-27T15:25:35.291Z,54.70
2023-06-27T15:28:03.402Z,54.49
2023-06-27T15:30:34.166Z,53.81
2023-06-27T15:33:05.825Z,53.79
2023-06-27T15:35:39.726Z,53.87
2023-06-27T15:38:06.895Z,53.47
2023-06-27T15:40:36.593Z,54.17
2023-06-27T15:43:08.101Z,53.55
2023-06-27T15:45:41.386Z,53.93
2023-06-27T15:48:09.505Z,53.76
2023-06-27T15:50:42.839Z,53.60
2023-06-27T15:53:13.170Z,53.55
2023-06-27T15:55:49.123Z,53.40
2023-06-27T15:58:28.779Z,53.77
2023-06-27T16:01:02.260Z,53.41
2023-06-27T16:03:41.360Z,53.47
2023-06-27T16:06:11.659Z,53.41
2023-06-27T16:08:39.907Z,53.30
2023-06-27T16:13:54.992Z,52.57
2023-06-27T16:16:28.540Z,52.29
2023-06-27T16:18:58.904Z,52.32
2023-06-27T16:21:28.998Z,52.49
2023-06-27T16:23:55.854Z,52.38
2023-06-27T16:26:27.904Z,52.42
2023-06-27T16:28:56.865Z,51.85
2023-06-27T16:31:27.289Z,51.65
2023-06-27T16:33:57.046Z,51.33
2023-06-27T16:36:29.977Z,51.10
2023-06-27T16:39:01.836Z,52.11
2023-06-27T16:41:31.203Z,52.13
2023-06-27T16:44:01.097Z,52.29
2023-06-27T16:46:28.098Z,52.48
2023-06-27T16:48:55.213Z,52.60
2023-06-27T16:51:21.835Z,52.59
2023-06-27T16:53:51.322Z,52.85
2023-06-27T16:56:18.595Z,53.35
2023-06-27T16:58:45.315Z,52.65
2023-06-27T17:01:14.941Z,52.91
2023-06-27T17:03:44.251Z,53.21
2023-06-27T17:06:13.700Z,53.10
2023-06-27T17:08:43.534Z,53.14
2023-06-27T17:11:10.304Z,53.23
2023-06-27T17:13:40.187Z,53.26
2023-06-27T17:16:06.944Z,53.26
2023-06-27T17:18:33.959Z,53.21
2023-06-27T17:21:06.421Z,53.43
2023-06-27T17:23:36.945Z,53.31
2023-06-27T17:26:04.344Z,53.44
2023-06-27T17:28:31.066Z,53.62
2023-06-27T17:31:03.678Z,53.42
2023-06-27T17:33:36.357Z,53.44
2023-06-27T17:36:03.266Z,53.49
2023-06-27T17:38:30.134Z,53.45
2023-06-27T17:41:06.112Z,53.70
2023-06-27T17:43:32.946Z,53.54
2023-06-27T17:46:06.620Z,53.82
2023-06-27T17:48:35.349Z,53.78
2023-06-27T17:51:07.672Z,54.07
2023-06-27T17:53:34.419Z,53.81
2023-06-27T17:56:04.490Z,54.14
2023-06-27T17:58:31.308Z,54.09
2023-06-27T18:01:01.066Z,54.52
2023-06-27T18:03:29.399Z,54.78
2023-06-27T18:05:59.223Z,54.95
2023-06-27T18:08:29.536Z,54.32
2023-06-27T18:10:59.979Z,54.61
2023-06-27T18:13:26.665Z,55.36
2023-06-27T18:16:00.144Z,55.43
2023-06-27T18:18:31.045Z,55.44
2023-06-27T18:21:03.593Z,53.89
2023-06-27T18:23:33.897Z,53.75
2023-06-27T18:26:03.462Z,53.70
2023-06-27T18:28:32.248Z,53.98
2023-06-27T18:31:02.516Z,52.54
2023-06-27T18:33:34.387Z,52.80
2023-06-27T18:36:01.401Z,52.96
2023-06-27T18:38:31.904Z,53.07
2023-06-27T18:41:03.063Z,53.31
2023-06-27T18:43:36.517Z,53.18
2023-06-27T18:46:03.629Z,53.24
2023-06-27T18:48:40.459Z,52.74
2023-06-27T18:51:10.532Z,53.35
2023-06-27T18:53:45.475Z,53.44
2023-06-27T18:56:16.779Z,53.57
2023-06-27T18:58:43.799Z,53.78
2023-06-27T19:01:13.890Z,54.27
2023-06-27T19:03:41.412Z,53.95
2023-06-27T19:06:11.416Z,53.80
2023-06-27T19:08:42.331Z,53.70
2023-06-27T19:11:12.449Z,53.27
2023-06-27T19:13:45.725Z,54.04
2023-06-27T19:16:17.067Z,54.76
2023-06-27T19:18:47.994Z,54.81
2023-06-27T19:21:18.763Z,54.88
2023-06-27T19:23:48.982Z,54.89
2023-06-27T19:26:19.883Z,54.78
2023-06-27T19:28:47.166Z,54.88
2023-06-27T19:31:22.179Z,54.75
2023-06-27T19:33:49.474Z,54.81
2023-06-27T19:36:19.938Z,54.71
2023-06-27T19:38:50.981Z,54.70
2023-06-27T19:41:22.274Z,54.85
2023-06-27T19:43:50.640Z,54.72
2023-06-27T19:46:17.992Z,54.46
2023-06-27T19:48:47.494Z,54.69
2023-06-27T19:51:19.541Z,54.49
2023-06-27T19:53:49.282Z,54.58
2023-06-27T19:56:23.056Z,54.61
2023-06-27T19:58:50.325Z,54.42
2023-06-27T20:01:25.359Z,54.50
2023-06-27T20:03:54.982Z,54.77
2023-06-27T20:06:25.284Z,54.43
2023-06-27T20:11:37.881Z,53.64
2023-06-27T20:14:11.435Z,52.97
2023-06-27T20:16:41.329Z,53.46
2023-06-27T20:19:09.102Z,53.67
2023-06-27T20:21:42.199Z,53.87
2023-06-27T20:24:15.890Z,53.91
2023-06-27T20:26:46.227Z,54.07
2023-06-27T20:29:16.307Z,54.09
2023-06-27T20:31:45.759Z,54.17
2023-06-27T20:34:15.417Z,54.15
2023-06-27T20:36:44.738Z,54.22
2023-06-27T20:39:14.512Z,54.27
2023-06-27T20:41:41.198Z,54.32
2023-06-27T20:44:16.832Z,54.36
2023-06-27T20:46:46.764Z,54.42
2023-06-27T20:49:16.868Z,54.43
2023-06-27T20:51:45.425Z,54.49
2023-06-27T20:54:19.773Z,54.51
2023-06-27T20:56:52.681Z,54.51
2023-06-27T20:59:20.045Z,54.53
2023-06-27T21:01:46.807Z,54.60
2023-06-27T21:04:18.275Z,54.59
2023-06-27T21:06:49.226Z,54.69
2023-06-27T21:09:19.514Z,54.67
2023-06-27T21:11:49.553Z,54.68
2023-06-27T21:14:19.277Z,54.74
2023-06-27T21:16:51.800Z,54.74
2023-06-27T21:19:21.942Z,54.80
2023-06-27T21:21:48.730Z,54.80
2023-06-27T21:24:21.097Z,54.89
2023-06-27T21:26:52.256Z,54.90
2023-06-27T21:29:22.247Z,54.91
2023-06-27T21:31:49.457Z,54.94
2023-06-27T21:34:24.666Z,54.95
2023-06-27T21:36:54.573Z,55.00
2023-06-27T21:39:21.739Z,55.08
2023-06-27T21:41:54.152Z,55.06
2023-06-27T21:44:20.905Z,55.09
2023-06-27T21:46:52.677Z,55.10
2023-06-27T21:49:19.330Z,55.17
2023-06-27T21:51:52.005Z,55.18
2023-06-27T21:54:22.441Z,55.25
2023-06-27T21:56:54.321Z,55.26
2023-06-27T21:59:23.827Z,55.27
2023-06-27T22:01:55.012Z,55.30
2023-06-27T22:04:25.009Z,55.32
2023-06-27T22:06:53.968Z,55.35
2023-06-27T22:09:26.260Z,55.39
2023-06-27T22:11:53.335Z,55.42
2023-06-27T22:14:28.403Z,55.47
2023-06-27T22:16:56.155Z,55.46
2023-06-27T22:19:26.600Z,55.50
2023-06-27T22:21:58.831Z,55.55
2023-06-27T22:24:28.916Z,55.60
2023-06-27T22:26:57.082Z,55.67
2023-06-27T22:29:26.914Z,55.66
2023-06-27T22:31:56.120Z,55.67
2023-06-27T22:34:26.224Z,55.64
2023-06-27T22:36:56.369Z,55.67
2023-06-27T22:39:23.005Z,55.69
2023-06-27T22:41:55.402Z,55.74
2023-06-27T22:44:25.196Z,55.73
2023-06-27T22:47:01.135Z,55.72
2023-06-27T22:49:34.690Z,55.75
2023-06-27T22:52:04.096Z,55.78
2023-06-27T22:54:34.286Z,55.79
2023-06-27T22:57:00.993Z,55.80
2023-06-27T22:59:30.882Z,55.82
2023-06-27T23:02:00.635Z,55.82
2023-06-27T23:04:27.376Z,55.81
2023-06-27T23:06:56.277Z,55.83
2023-06-27T23:09:29.163Z,55.79
2023-06-27T23:11:58.868Z,55.80
2023-06-27T23:14:27.144Z,55.82
2023-06-27T23:16:55.466Z,55.77
2023-06-27T23:19:28.675Z,55.79
2023-06-27T23:21:55.480Z,55.79
2023-06-27T23:24:25.584Z,55.78
2023-06-27T23:26:59.254Z,55.77
2023-06-27T23:29:32.598Z,55.78
2023-06-27T23:32:02.963Z,55.82
2023-06-27T23:34:36.104Z,55.77
2023-06-27T23:37:05.530Z,55.77
2023-06-27T23:39:40.374Z,55.74
2023-06-27T23:42:10.256Z,55.78
2023-06-27T23:44:43.193Z,55.76
2023-06-27T23:47:13.465Z,55.75
2023-06-27T23:49:43.014Z,55.76
2023-06-27T23:52:09.741Z,55.79
2023-06-27T23:54:36.460Z,55.89
2023-06-27T23:57:06.697Z,55.88
2023-06-27T23:59:36.260Z,55.86
